sensor_id;sensor_type;location;lat;lon;timestamp;temperature;humidity
27667;DHT22;15074;50.940;5.282;2022-09-01T00:01:30;19.20;99.90
27667;DHT22;15074;50.940;5.282;2022-09-01T00:03:57;19.10;99.90
27667;DHT22;15074;50.940;5.282;2022-09-01T00:06:30;18.90;99.90
27667;DHT22;15074;50.940;5.282;2022-09-01T00:09:02;18.90;99.90
27667;DHT22;15074;50.940;5.282;2022-09-01T00:11:29;18.90;99.90
27667;DHT22;15074;50.940;5.282;2022-09-01T00:13:56;18.90;99.90
27667;DHT22;15074;50.940;5.282;2022-09-01T00:16:22;19.00;99.90
27667;DHT22;15074;50.940;5.282;2022-09-01T00:18:51;18.90;99.90
27667;DHT22;15074;50.940;5.282;2022-09-01T00:21:26;18.90;99.90
27667;DHT22;15074;50.940;5.282;2022-09-01T00:23:52;18.80;99.90
27667;DHT22;15074;50.940;5.282;2022-09-01T00:26:18;18.80;99.90
27667;DHT22;15074;50.940;5.282;2022-09-01T00:28:44;18.70;99.90
27667;DHT22;15074;50.940;5.282;2022-09-01T00:31:10;18.70;99.90
27667;DHT22;15074;50.940;5.282;2022-09-01T00:33:36;18.60;99.90
27667;DHT22;15074;50.940;5.282;2022-09-01T00:36:03;18.50;99.90
27667;DHT22;15074;50.940;5.282;2022-09-01T00:38:30;18.40;99.90
27667;DHT22;15074;50.940;5.282;2022-09-01T00:40:56;18.50;99.90
27667;DHT22;15074;50.940;5.282;2022-09-01T00:43:36;18.50;99.90
27667;DHT22;15074;50.940;5.282;2022-09-01T00:46:05;18.50;99.90
27667;DHT22;15074;50.940;5.282;2022-09-01T00:48:31;18.50;99.90
27667;DHT22;15074;50.940;5.282;2022-09-01T00:50:57;18.50;99.90
27667;DHT22;15074;50.940;5.282;2022-09-01T00:53:23;18.40;99.90
27667;DHT22;15074;50.940;5.282;2022-09-01T00:55:49;18.40;99.90
27667;DHT22;15074;50.940;5.282;2022-09-01T00:58:14;18.40;99.90
27667;DHT22;15074;50.940;5.282;2022-09-01T01:00:40;18.30;99.90
27667;DHT22;15074;50.940;5.282;2022-09-01T01:03:11;18.40;99.90
27667;DHT22;15074;50.940;5.282;2022-09-01T01:05:45;18.40;99.90
27667;DHT22;15074;50.940;5.282;2022-09-01T01:08:13;18.40;99.90
27667;DHT22;15074;50.940;5.282;2022-09-01T01:10:41;18.20;99.90
27667;DHT22;15074;50.940;5.282;2022-09-01T01:13:15;18.20;99.90
27667;DHT22;15074;50.940;5.282;2022-09-01T01:15:42;18.20;99.90
27667;DHT22;15074;50.940;5.282;2022-09-01T01:18:14;18.10;99.90
27667;DHT22;15074;50.940;5.282;2022-09-01T01:20:41;18.10;99.90
27667;DHT22;15074;50.940;5.282;2022-09-01T01:26:32;18.00;99.90
27667;DHT22;15074;50.940;5.282;2022-09-01T01:28:58;18.00;99.90
27667;DHT22;15074;50.940;5.282;2022-09-01T01:31:25;18.00;99.90
27667;DHT22;15074;50.940;5.282;2022-09-01T01:33:54;17.90;99.90
27667;DHT22;15074;50.940;5.282;2022-09-01T01:36:26;17.90;99.90
27667;DHT22;15074;50.940;5.282;2022-09-01T01:39:06;17.80;99.90
27667;DHT22;15074;50.940;5.282;2022-09-01T01:41:33;17.80;99.90
27667;DHT22;15074;50.940;5.282;2022-09-01T01:44:01;17.70;99.90
27667;DHT22;15074;50.940;5.282;2022-09-01T01:46:29;17.70;99.90
27667;DHT22;15074;50.940;5.282;2022-09-01T01:48:54;17.60;99.90
27667;DHT22;15074;50.940;5.282;2022-09-01T01:51:21;17.60;99.90
27667;DHT22;15074;50.940;5.282;2022-09-01T01:53:52;17.70;99.90
27667;DHT22;15074;50.940;5.282;2022-09-01T01:56:22;17.70;99.90
27667;DHT22;15074;50.940;5.282;2022-09-01T01:58:55;17.70;99.90
27667;DHT22;15074;50.940;5.282;2022-09-01T02:01:24;17.60;99.90
27667;DHT22;15074;50.940;5.282;2022-09-01T02:03:50;17.60;99.90
27667;DHT22;15074;50.940;5.282;2022-09-01T02:06:20;17.60;99.90
27667;DHT22;15074;50.940;5.282;2022-09-01T02:08:53;17.60;99.90
27667;DHT22;15074;50.940;5.282;2022-09-01T02:11:24;17.50;99.90
27667;DHT22;15074;50.940;5.282;2022-09-01T02:13:51;17.50;99.90
27667;DHT22;15074;50.940;5.282;2022-09-01T02:16:21;17.60;99.90
27667;DHT22;15074;50.940;5.282;2022-09-01T02:18:48;17.60;99.90
27667;DHT22;15074;50.940;5.282;2022-09-01T02:21:17;17.60;99.90
27667;DHT22;15074;50.940;5.282;2022-09-01T02:23:56;17.60;99.90
27667;DHT22;15074;50.940;5.282;2022-09-01T02:26:28;17.50;99.90
27667;DHT22;15074;50.940;5.282;2022-09-01T02:28:57;17.50;99.90
27667;DHT22;15074;50.940;5.282;2022-09-01T02:31:23;17.60;99.90
27667;DHT22;15074;50.940;5.282;2022-09-01T02:33:49;17.50;99.90
27667;DHT22;15074;50.940;5.282;2022-09-01T02:36:17;17.50;99.90
27667;DHT22;15074;50.940;5.282;2022-09-01T02:38:44;17.40;99.90
27667;DHT22;15074;50.940;5.282;2022-09-01T02:41:11;17.50;99.90
27667;DHT22;15074;50.940;5.282;2022-09-01T02:43:41;17.40;99.90
27667;DHT22;15074;50.940;5.282;2022-09-01T02:46:11;17.40;99.90
27667;DHT22;15074;50.940;5.282;2022-09-01T02:48:40;17.30;99.90
27667;DHT22;15074;50.940;5.282;2022-09-01T02:51:07;17.50;99.90
27667;DHT22;15074;50.940;5.282;2022-09-01T02:53:34;17.50;99.90
27667;DHT22;15074;50.940;5.282;2022-09-01T02:56:02;17.40;99.90
27667;DHT22;15074;50.940;5.282;2022-09-01T02:58:29;17.30;99.90
27667;DHT22;15074;50.940;5.282;2022-09-01T03:00:58;17.30;99.90
27667;DHT22;15074;50.940;5.282;2022-09-01T03:03:24;17.30;99.90
27667;DHT22;15074;50.940;5.282;2022-09-01T03:05:51;17.20;99.90
27667;DHT22;15074;50.940;5.282;2022-09-01T03:08:22;17.10;99.90
27667;DHT22;15074;50.940;5.282;2022-09-01T03:10:49;17.00;99.90
27667;DHT22;15074;50.940;5.282;2022-09-01T03:13:21;17.00;99.90
27667;DHT22;15074;50.940;5.282;2022-09-01T03:15:48;16.90;99.90
27667;DHT22;15074;50.940;5.282;2022-09-01T03:18:14;16.80;99.90
27667;DHT22;15074;50.940;5.282;2022-09-01T03:20:42;16.80;99.90
27667;DHT22;15074;50.940;5.282;2022-09-01T03:23:12;16.80;99.90
27667;DHT22;15074;50.940;5.282;2022-09-01T03:25:40;16.70;99.90
27667;DHT22;15074;50.940;5.282;2022-09-01T03:28:07;16.70;99.90
27667;DHT22;15074;50.940;5.282;2022-09-01T03:30:35;16.60;99.90
27667;DHT22;15074;50.940;5.282;2022-09-01T03:33:05;16.60;99.90
27667;DHT22;15074;50.940;5.282;2022-09-01T03:35:31;16.60;99.90
27667;DHT22;15074;50.940;5.282;2022-09-01T03:37:58;16.60;99.90
27667;DHT22;15074;50.940;5.282;2022-09-01T03:40:25;16.60;99.90
27667;DHT22;15074;50.940;5.282;2022-09-01T03:42:52;16.70;99.90
27667;DHT22;15074;50.940;5.282;2022-09-01T03:45:20;16.70;99.90
27667;DHT22;15074;50.940;5.282;2022-09-01T03:47:46;16.60;99.90
27667;DHT22;15074;50.940;5.282;2022-09-01T03:50:15;16.50;99.90
27667;DHT22;15074;50.940;5.282;2022-09-01T03:55:15;16.50;99.90
27667;DHT22;15074;50.940;5.282;2022-09-01T03:57:51;16.50;99.90
27667;DHT22;15074;50.940;5.282;2022-09-01T04:00:18;16.60;99.90
27667;DHT22;15074;50.940;5.282;2022-09-01T04:02:53;16.50;99.90
27667;DHT22;15074;50.940;5.282;2022-09-01T04:05:23;16.40;99.90
27667;DHT22;15074;50.940;5.282;2022-09-01T04:07:54;16.40;99.90
27667;DHT22;15074;50.940;5.282;2022-09-01T04:10:21;16.40;99.90
27667;DHT22;15074;50.940;5.282;2022-09-01T04:12:47;16.50;99.90
27667;DHT22;15074;50.940;5.282;2022-09-01T04:15:14;16.40;99.90
27667;DHT22;15074;50.940;5.282;2022-09-01T04:17:42;16.50;99.90
27667;DHT22;15074;50.940;5.282;2022-09-01T04:20:27;16.50;99.90
27667;DHT22;15074;50.940;5.282;2022-09-01T04:22:53;16.50;99.90
27667;DHT22;15074;50.940;5.282;2022-09-01T04:25:20;16.40;99.90
27667;DHT22;15074;50.940;5.282;2022-09-01T04:27:51;16.40;99.90
27667;DHT22;15074;50.940;5.282;2022-09-01T04:30:20;16.50;99.90
27667;DHT22;15074;50.940;5.282;2022-09-01T04:32:53;16.50;99.90
27667;DHT22;15074;50.940;5.282;2022-09-01T04:35:21;16.60;99.90
27667;DHT22;15074;50.940;5.282;2022-09-01T04:37:52;16.60;99.90
27667;DHT22;15074;50.940;5.282;2022-09-01T04:40:18;16.70;99.90
27667;DHT22;15074;50.940;5.282;2022-09-01T04:42:48;16.60;99.90
27667;DHT22;15074;50.940;5.282;2022-09-01T04:45:14;16.60;99.90
27667;DHT22;15074;50.940;5.282;2022-09-01T04:47:40;16.60;99.90
27667;DHT22;15074;50.940;5.282;2022-09-01T04:50:08;16.60;99.90
27667;DHT22;15074;50.940;5.282;2022-09-01T04:52:44;16.60;99.90
27667;DHT22;15074;50.940;5.282;2022-09-01T04:55:11;16.40;99.90
27667;DHT22;15074;50.940;5.282;2022-09-01T04:57:47;16.20;99.90
27667;DHT22;15074;50.940;5.282;2022-09-01T05:00:15;16.10;99.90
27667;DHT22;15074;50.940;5.282;2022-09-01T05:02:51;16.10;99.90
27667;DHT22;15074;50.940;5.282;2022-09-01T05:05:22;16.10;99.90
27667;DHT22;15074;50.940;5.282;2022-09-01T05:07:48;16.00;99.90
27667;DHT22;15074;50.940;5.282;2022-09-01T05:10:21;16.00;99.90
27667;DHT22;15074;50.940;5.282;2022-09-01T05:12:47;16.10;99.90
27667;DHT22;15074;50.940;5.282;2022-09-01T05:15:14;16.10;99.90
27667;DHT22;15074;50.940;5.282;2022-09-01T05:17:42;16.20;99.90
27667;DHT22;15074;50.940;5.282;2022-09-01T05:20:09;16.20;99.90
27667;DHT22;15074;50.940;5.282;2022-09-01T05:22:36;16.20;99.90
27667;DHT22;15074;50.940;5.282;2022-09-01T05:25:06;16.20;99.90
27667;DHT22;15074;50.940;5.282;2022-09-01T05:27:40;16.10;99.90
27667;DHT22;15074;50.940;5.282;2022-09-01T05:30:06;16.30;99.90
27667;DHT22;15074;50.940;5.282;2022-09-01T05:32:36;16.70;99.90
27667;DHT22;15074;50.940;5.282;2022-09-01T05:35:03;17.00;99.90
27667;DHT22;15074;50.940;5.282;2022-09-01T05:37:35;17.20;99.90
27667;DHT22;15074;50.940;5.282;2022-09-01T05:40:08;17.10;99.90
27667;DHT22;15074;50.940;5.282;2022-09-01T05:42:35;17.20;99.90
27667;DHT22;15074;50.940;5.282;2022-09-01T05:45:03;17.20;99.90
27667;DHT22;15074;50.940;5.282;2022-09-01T05:47:29;17.30;99.90
27667;DHT22;15074;50.940;5.282;2022-09-01T05:49:54;17.60;99.90
27667;DHT22;15074;50.940;5.282;2022-09-01T05:52:21;18.30;99.90
27667;DHT22;15074;50.940;5.282;2022-09-01T05:54:50;19.20;99.90
27667;DHT22;15074;50.940;5.282;2022-09-01T05:57:16;19.90;99.90
27667;DHT22;15074;50.940;5.282;2022-09-01T05:59:43;20.60;99.90
27667;DHT22;15074;50.940;5.282;2022-09-01T06:02:21;21.10;99.90
27667;DHT22;15074;50.940;5.282;2022-09-01T06:04:47;21.30;99.90
27667;DHT22;15074;50.940;5.282;2022-09-01T06:07:15;21.50;99.90
27667;DHT22;15074;50.940;5.282;2022-09-01T06:09:44;22.00;99.90
27667;DHT22;15074;50.940;5.282;2022-09-01T06:12:11;22.80;99.90
27667;DHT22;15074;50.940;5.282;2022-09-01T06:14:42;23.00;99.90
27667;DHT22;15074;50.940;5.282;2022-09-01T06:17:09;23.20;99.90
27667;DHT22;15074;50.940;5.282;2022-09-01T06:19:39;23.50;99.90
27667;DHT22;15074;50.940;5.282;2022-09-01T06:22:04;23.10;99.90
27667;DHT22;15074;50.940;5.282;2022-09-01T06:24:30;22.90;99.90
27667;DHT22;15074;50.940;5.282;2022-09-01T06:26:56;23.10;99.90
27667;DHT22;15074;50.940;5.282;2022-09-01T06:29:21;23.60;99.90
27667;DHT22;15074;50.940;5.282;2022-09-01T06:31:47;23.60;99.90
27667;DHT22;15074;50.940;5.282;2022-09-01T06:34:17;23.60;99.90
27667;DHT22;15074;50.940;5.282;2022-09-01T06:36:45;23.60;99.90
27667;DHT22;15074;50.940;5.282;2022-09-01T06:39:13;23.90;99.90
27667;DHT22;15074;50.940;5.282;2022-09-01T06:41:48;24.00;99.90
27667;DHT22;15074;50.940;5.282;2022-09-01T06:44:17;23.70;99.90
27667;DHT22;15074;50.940;5.282;2022-09-01T06:46:47;24.60;99.90
27667;DHT22;15074;50.940;5.282;2022-09-01T06:49:13;25.10;99.90
27667;DHT22;15074;50.940;5.282;2022-09-01T06:51:39;25.50;99.90
27667;DHT22;15074;50.940;5.282;2022-09-01T06:54:04;23.90;99.90
27667;DHT22;15074;50.940;5.282;2022-09-01T06:56:32;23.20;99.90
27667;DHT22;15074;50.940;5.282;2022-09-01T06:59:00;23.30;99.90
27667;DHT22;15074;50.940;5.282;2022-09-01T07:01:26;23.90;99.90
27667;DHT22;15074;50.940;5.282;2022-09-01T07:03:53;25.00;99.90
27667;DHT22;15074;50.940;5.282;2022-09-01T07:06:22;24.90;99.90
27667;DHT22;15074;50.940;5.282;2022-09-01T07:08:57;24.50;99.90
27667;DHT22;15074;50.940;5.282;2022-09-01T07:11:25;23.30;99.90
27667;DHT22;15074;50.940;5.282;2022-09-01T07:13:55;23.40;99.90
27667;DHT22;15074;50.940;5.282;2022-09-01T07:16:23;23.60;99.90
27667;DHT22;15074;50.940;5.282;2022-09-01T07:18:50;23.90;99.90
27667;DHT22;15074;50.940;5.282;2022-09-01T07:21:17;24.10;99.90
27667;DHT22;15074;50.940;5.282;2022-09-01T07:23:44;24.90;99.90
27667;DHT22;15074;50.940;5.282;2022-09-01T07:26:11;24.80;99.90
27667;DHT22;15074;50.940;5.282;2022-09-01T07:28:39;26.00;99.90
27667;DHT22;15074;50.940;5.282;2022-09-01T07:31:05;26.80;98.90
27667;DHT22;15074;50.940;5.282;2022-09-01T07:33:33;27.60;97.50
27667;DHT22;15074;50.940;5.282;2022-09-01T07:35:59;28.30;96.10
27667;DHT22;15074;50.940;5.282;2022-09-01T07:38:25;29.30;94.10
27667;DHT22;15074;50.940;5.282;2022-09-01T07:40:52;28.50;94.60
27667;DHT22;15074;50.940;5.282;2022-09-01T07:43:23;29.40;93.20
27667;DHT22;15074;50.940;5.282;2022-09-01T07:45:55;29.80;92.80
27667;DHT22;15074;50.940;5.282;2022-09-01T07:48:25;30.10;91.80
27667;DHT22;15074;50.940;5.282;2022-09-01T07:50:54;28.70;92.50
27667;DHT22;15074;50.940;5.282;2022-09-01T07:53:29;26.70;94.60
27667;DHT22;15074;50.940;5.282;2022-09-01T07:55:58;26.40;96.70
27667;DHT22;15074;50.940;5.282;2022-09-01T07:58:27;26.90;95.60
27667;DHT22;15074;50.940;5.282;2022-09-01T08:00:58;26.30;96.20
27667;DHT22;15074;50.940;5.282;2022-09-01T08:03:28;26.30;96.90
27667;DHT22;15074;50.940;5.282;2022-09-01T08:05:55;26.70;96.20
27667;DHT22;15074;50.940;5.282;2022-09-01T08:08:25;27.40;94.60
27667;DHT22;15074;50.940;5.282;2022-09-01T08:10:51;26.40;96.10
27667;DHT22;15074;50.940;5.282;2022-09-01T08:13:18;26.30;96.50
27667;DHT22;15074;50.940;5.282;2022-09-01T08:15:44;26.40;96.80
27667;DHT22;15074;50.940;5.282;2022-09-01T08:18:11;27.70;95.40
27667;DHT22;15074;50.940;5.282;2022-09-01T08:20:38;28.90;93.30
27667;DHT22;15074;50.940;5.282;2022-09-01T08:23:10;30.10;91.80
27667;DHT22;15074;50.940;5.282;2022-09-01T08:25:37;30.70;90.40
27667;DHT22;15074;50.940;5.282;2022-09-01T08:28:04;30.20;90.90
27667;DHT22;15074;50.940;5.282;2022-09-01T08:30:30;30.90;89.60
27667;DHT22;15074;50.940;5.282;2022-09-01T08:33:00;30.60;89.50
27667;DHT22;15074;50.940;5.282;2022-09-01T08:35:27;30.10;89.30
27667;DHT22;15074;50.940;5.282;2022-09-01T08:37:56;29.50;90.30
27667;DHT22;15074;50.940;5.282;2022-09-01T08:40:23;28.50;91.10
27667;DHT22;15074;50.940;5.282;2022-09-01T08:45:48;28.80;90.40
27667;DHT22;15074;50.940;5.282;2022-09-01T08:48:18;29.00;90.90
27667;DHT22;15074;50.940;5.282;2022-09-01T08:50:50;27.70;92.30
27667;DHT22;15074;50.940;5.282;2022-09-01T08:53:30;28.70;91.80
27667;DHT22;15074;50.940;5.282;2022-09-01T08:55:58;29.00;90.90
27667;DHT22;15074;50.940;5.282;2022-09-01T08:58:25;28.50;90.80
27667;DHT22;15074;50.940;5.282;2022-09-01T09:00:59;27.50;91.90
27667;DHT22;15074;50.940;5.282;2022-09-01T09:03:52;28.30;91.90
27667;DHT22;15074;50.940;5.282;2022-09-01T09:09:13;30.70;88.20
27667;DHT22;15074;50.940;5.282;2022-09-01T09:17:18;29.60;84.50
27667;DHT22;15074;50.940;5.282;2022-09-01T09:19:45;29.20;87.10
27667;DHT22;15074;50.940;5.282;2022-09-01T09:22:15;30.20;84.10
27667;DHT22;15074;50.940;5.282;2022-09-01T09:27:36;27.70;88.90
27667;DHT22;15074;50.940;5.282;2022-09-01T09:30:23;27.30;90.00
27667;DHT22;15074;50.940;5.282;2022-09-01T09:32:53;27.10;91.00
27667;DHT22;15074;50.940;5.282;2022-09-01T09:35:41;28.10;90.20
27667;DHT22;15074;50.940;5.282;2022-09-01T09:41:07;31.40;81.40
27667;DHT22;15074;50.940;5.282;2022-09-01T09:43:37;32.00;80.30
27667;DHT22;15074;50.940;5.282;2022-09-01T09:51:31;28.50;84.20
27667;DHT22;15074;50.940;5.282;2022-09-01T09:54:16;29.10;84.00
27667;DHT22;15074;50.940;5.282;2022-09-01T09:56:42;29.40;84.50
27667;DHT22;15074;50.940;5.282;2022-09-01T10:01:42;31.00;82.40
27667;DHT22;15074;50.940;5.282;2022-09-01T10:04:08;32.40;78.20
27667;DHT22;15074;50.940;5.282;2022-09-01T10:06:40;33.40;75.70
27667;DHT22;15074;50.940;5.282;2022-09-01T10:09:09;32.40;74.80
27667;DHT22;15074;50.940;5.282;2022-09-01T10:11:46;32.70;74.90
27667;DHT22;15074;50.940;5.282;2022-09-01T10:14:22;30.00;78.90
27667;DHT22;15074;50.940;5.282;2022-09-01T10:16:53;31.70;76.80
27667;DHT22;15074;50.940;5.282;2022-09-01T10:19:21;30.70;76.70
27667;DHT22;15074;50.940;5.282;2022-09-01T10:21:47;31.10;77.20
27667;DHT22;15074;50.940;5.282;2022-09-01T10:26:51;29.70;79.40
27667;DHT22;15074;50.940;5.282;2022-09-01T10:29:23;29.20;79.80
27667;DHT22;15074;50.940;5.282;2022-09-01T10:31:53;30.50;77.40
27667;DHT22;15074;50.940;5.282;2022-09-01T10:34:21;31.60;75.70
27667;DHT22;15074;50.940;5.282;2022-09-01T10:36:49;32.50;72.40
27667;DHT22;15074;50.940;5.282;2022-09-01T10:39:17;31.70;74.30
27667;DHT22;15074;50.940;5.282;2022-09-01T10:41:44;32.80;72.70
27667;DHT22;15074;50.940;5.282;2022-09-01T10:44:53;31.90;71.40
27667;DHT22;15074;50.940;5.282;2022-09-01T10:47:32;31.10;73.60
27667;DHT22;15074;50.940;5.282;2022-09-01T10:53:04;30.50;75.50
27667;DHT22;15074;50.940;5.282;2022-09-01T10:55:36;29.80;76.20
27667;DHT22;15074;50.940;5.282;2022-09-01T10:58:38;30.90;75.30
27667;DHT22;15074;50.940;5.282;2022-09-01T11:01:07;30.30;75.50
27667;DHT22;15074;50.940;5.282;2022-09-01T11:03:38;29.30;74.40
27667;DHT22;15074;50.940;5.282;2022-09-01T11:06:52;29.70;75.80
27667;DHT22;15074;50.940;5.282;2022-09-01T11:14:29;28.90;74.20
27667;DHT22;15074;50.940;5.282;2022-09-01T11:17:25;29.40;72.40
27667;DHT22;15074;50.940;5.282;2022-09-01T11:25:43;27.60;73.70
27667;DHT22;15074;50.940;5.282;2022-09-01T11:30:48;29.30;70.50
27667;DHT22;15074;50.940;5.282;2022-09-01T11:33:47;29.30;69.30
27667;DHT22;15074;50.940;5.282;2022-09-01T11:38:52;29.50;68.00
27667;DHT22;15074;50.940;5.282;2022-09-01T11:41:30;29.70;69.10
27667;DHT22;15074;50.940;5.282;2022-09-01T11:44:00;29.80;67.40
27667;DHT22;15074;50.940;5.282;2022-09-01T11:46:33;29.20;67.50
27667;DHT22;15074;50.940;5.282;2022-09-01T11:49:07;29.20;68.60
27667;DHT22;15074;50.940;5.282;2022-09-01T11:51:46;29.40;69.00
27667;DHT22;15074;50.940;5.282;2022-09-01T11:54:13;30.40;66.70
27667;DHT22;15074;50.940;5.282;2022-09-01T11:56:39;31.60;65.70
27667;DHT22;15074;50.940;5.282;2022-09-01T11:59:05;31.40;64.30
27667;DHT22;15074;50.940;5.282;2022-09-01T12:01:35;29.70;66.60
27667;DHT22;15074;50.940;5.282;2022-09-01T12:04:24;28.20;69.20
27667;DHT22;15074;50.940;5.282;2022-09-01T12:07:07;28.70;70.60
27667;DHT22;15074;50.940;5.282;2022-09-01T12:09:42;29.10;68.00
27667;DHT22;15074;50.940;5.282;2022-09-01T12:15:07;28.30;70.60
27667;DHT22;15074;50.940;5.282;2022-09-01T12:17:34;28.40;69.80
27667;DHT22;15074;50.940;5.282;2022-09-01T12:20:27;28.40;70.60
27667;DHT22;15074;50.940;5.282;2022-09-01T12:22:54;29.80;69.30
27667;DHT22;15074;50.940;5.282;2022-09-01T12:27:45;29.70;66.80
27667;DHT22;15074;50.940;5.282;2022-09-01T12:30:11;28.90;68.50
27667;DHT22;15074;50.940;5.282;2022-09-01T12:32:37;28.20;68.80
27667;DHT22;15074;50.940;5.282;2022-09-01T12:35:04;28.10;70.20
27667;DHT22;15074;50.940;5.282;2022-09-01T12:37:37;28.10;69.30
27667;DHT22;15074;50.940;5.282;2022-09-01T12:40:03;27.80;70.10
27667;DHT22;15074;50.940;5.282;2022-09-01T12:42:31;28.60;69.70
27667;DHT22;15074;50.940;5.282;2022-09-01T12:44:58;29.30;68.40
27667;DHT22;15074;50.940;5.282;2022-09-01T12:50:46;28.50;68.70
27667;DHT22;15074;50.940;5.282;2022-09-01T12:52:50;27.80;68.60
27667;DHT22;15074;50.940;5.282;2022-09-01T12:57:59;28.30;70.40
27667;DHT22;15074;50.940;5.282;2022-09-01T13:00:31;28.10;68.10
27667;DHT22;15074;50.940;5.282;2022-09-01T13:03:12;28.70;68.10
27667;DHT22;15074;50.940;5.282;2022-09-01T13:05:40;30.30;66.20
27667;DHT22;15074;50.940;5.282;2022-09-01T13:08:21;31.20;62.90
27667;DHT22;15074;50.940;5.282;2022-09-01T13:10:50;31.10;62.40
27667;DHT22;15074;50.940;5.282;2022-09-01T13:13:18;30.50;62.10
27667;DHT22;15074;50.940;5.282;2022-09-01T13:15:48;29.40;62.70
27667;DHT22;15074;50.940;5.282;2022-09-01T13:18:19;28.80;64.30
27667;DHT22;15074;50.940;5.282;2022-09-01T13:20:46;29.00;66.60
27667;DHT22;15074;50.940;5.282;2022-09-01T13:23:12;28.70;65.20
27667;DHT22;15074;50.940;5.282;2022-09-01T13:25:39;28.00;67.00
27667;DHT22;15074;50.940;5.282;2022-09-01T13:28:09;27.70;68.00
27667;DHT22;15074;50.940;5.282;2022-09-01T13:30:36;28.40;68.60
27667;DHT22;15074;50.940;5.282;2022-09-01T13:33:03;28.40;67.30
27667;DHT22;15074;50.940;5.282;2022-09-01T13:35:29;28.00;68.80
27667;DHT22;15074;50.940;5.282;2022-09-01T13:37:54;29.00;67.70
27667;DHT22;15074;50.940;5.282;2022-09-01T13:40:21;29.50;66.50
27667;DHT22;15074;50.940;5.282;2022-09-01T13:42:49;30.50;65.40
27667;DHT22;15074;50.940;5.282;2022-09-01T13:45:16;31.20;63.70
27667;DHT22;15074;50.940;5.282;2022-09-01T13:47:44;31.90;62.70
27667;DHT22;15074;50.940;5.282;2022-09-01T13:50:12;31.20;62.80
27667;DHT22;15074;50.940;5.282;2022-09-01T13:52:44;30.80;64.40
27667;DHT22;15074;50.940;5.282;2022-09-01T13:55:13;29.70;64.50
27667;DHT22;15074;50.940;5.282;2022-09-01T13:57:39;29.30;63.30
27667;DHT22;15074;50.940;5.282;2022-09-01T14:00:07;28.00;66.20
27667;DHT22;15074;50.940;5.282;2022-09-01T14:02:35;27.80;66.50
27667;DHT22;15074;50.940;5.282;2022-09-01T14:05:02;27.50;67.50
27667;DHT22;15074;50.940;5.282;2022-09-01T14:07:27;27.60;67.70
27667;DHT22;15074;50.940;5.282;2022-09-01T14:09:54;27.50;68.30
27667;DHT22;15074;50.940;5.282;2022-09-01T14:12:21;27.40;67.50
27667;DHT22;15074;50.940;5.282;2022-09-01T14:14:46;27.80;67.50
27667;DHT22;15074;50.940;5.282;2022-09-01T14:17:12;27.60;67.00
27667;DHT22;15074;50.940;5.282;2022-09-01T14:19:38;28.00;67.50
27667;DHT22;15074;50.940;5.282;2022-09-01T14:22:03;28.80;65.70
27667;DHT22;15074;50.940;5.282;2022-09-01T14:24:33;28.70;65.80
27667;DHT22;15074;50.940;5.282;2022-09-01T14:27:00;29.70;65.40
27667;DHT22;15074;50.940;5.282;2022-09-01T14:29:26;30.50;64.70
27667;DHT22;15074;50.940;5.282;2022-09-01T14:31:52;30.60;64.50
27667;DHT22;15074;50.940;5.282;2022-09-01T14:34:20;31.20;63.80
27667;DHT22;15074;50.940;5.282;2022-09-01T14:36:45;31.50;62.90
27667;DHT22;15074;50.940;5.282;2022-09-01T14:39:11;30.10;63.60
27667;DHT22;15074;50.940;5.282;2022-09-01T14:41:37;30.30;65.40
27667;DHT22;15074;50.940;5.282;2022-09-01T14:44:03;30.40;64.30
27667;DHT22;15074;50.940;5.282;2022-09-01T14:46:29;30.20;64.10
27667;DHT22;15074;50.940;5.282;2022-09-01T14:48:55;30.20;63.30
27667;DHT22;15074;50.940;5.282;2022-09-01T14:51:24;30.10;63.80
27667;DHT22;15074;50.940;5.282;2022-09-01T14:53:51;29.00;64.80
27667;DHT22;15074;50.940;5.282;2022-09-01T14:56:17;28.60;64.90
27667;DHT22;15074;50.940;5.282;2022-09-01T14:58:45;28.00;66.80
27667;DHT22;15074;50.940;5.282;2022-09-01T15:01:13;28.00;66.40
27667;DHT22;15074;50.940;5.282;2022-09-01T15:03:40;27.80;67.90
27667;DHT22;15074;50.940;5.282;2022-09-01T15:06:12;28.00;67.70
27667;DHT22;15074;50.940;5.282;2022-09-01T15:08:39;28.10;67.20
27667;DHT22;15074;50.940;5.282;2022-09-01T15:11:10;28.20;66.50
27667;DHT22;15074;50.940;5.282;2022-09-01T15:13:37;28.30;67.10
27667;DHT22;15074;50.940;5.282;2022-09-01T15:16:03;28.30;66.40
27667;DHT22;15074;50.940;5.282;2022-09-01T15:18:29;28.30;67.00
27667;DHT22;15074;50.940;5.282;2022-09-01T15:20:55;28.40;66.30
27667;DHT22;15074;50.940;5.282;2022-09-01T15:23:23;28.20;66.60
27667;DHT22;15074;50.940;5.282;2022-09-01T15:25:53;28.10;66.70
27667;DHT22;15074;50.940;5.282;2022-09-01T15:28:20;27.50;68.30
27667;DHT22;15074;50.940;5.282;2022-09-01T15:30:47;27.40;68.30
27667;DHT22;15074;50.940;5.282;2022-09-01T15:33:13;27.30;67.80
27667;DHT22;15074;50.940;5.282;2022-09-01T15:35:39;27.10;68.00
27667;DHT22;15074;50.940;5.282;2022-09-01T15:38:05;26.60;69.10
27667;DHT22;15074;50.940;5.282;2022-09-01T15:40:41;26.90;69.40
27667;DHT22;15074;50.940;5.282;2022-09-01T15:43:08;27.20;69.20
27667;DHT22;15074;50.940;5.282;2022-09-01T15:45:34;27.30;69.20
27667;DHT22;15074;50.940;5.282;2022-09-01T15:48:00;27.40;69.00
27667;DHT22;15074;50.940;5.282;2022-09-01T15:50:27;27.40;68.60
27667;DHT22;15074;50.940;5.282;2022-09-01T15:52:59;27.20;69.10
27667;DHT22;15074;50.940;5.282;2022-09-01T15:55:36;26.70;71.00
27667;DHT22;15074;50.940;5.282;2022-09-01T15:58:02;26.90;71.00
27667;DHT22;15074;50.940;5.282;2022-09-01T16:00:28;27.10;70.20
27667;DHT22;15074;50.940;5.282;2022-09-01T16:02:55;27.20;70.60
27667;DHT22;15074;50.940;5.282;2022-09-01T16:05:23;27.10;70.30
27667;DHT22;15074;50.940;5.282;2022-09-01T16:07:50;27.30;70.30
27667;DHT22;15074;50.940;5.282;2022-09-01T16:10:16;27.30;70.50
27667;DHT22;15074;50.940;5.282;2022-09-01T16:12:43;26.90;70.80
27667;DHT22;15074;50.940;5.282;2022-09-01T16:15:19;26.50;72.80
27667;DHT22;15074;50.940;5.282;2022-09-01T16:20:20;26.40;72.70
27667;DHT22;15074;50.940;5.282;2022-09-01T16:23:05;26.50;72.50
27667;DHT22;15074;50.940;5.282;2022-09-01T16:25:33;26.60;72.00
27667;DHT22;15074;50.940;5.282;2022-09-01T16:28:09;26.70;71.90
27667;DHT22;15074;50.940;5.282;2022-09-01T16:30:37;26.70;72.00
27667;DHT22;15074;50.940;5.282;2022-09-01T16:33:04;26.80;72.10
27667;DHT22;15074;50.940;5.282;2022-09-01T16:35:58;26.90;71.80
27667;DHT22;15074;50.940;5.282;2022-09-01T16:38:45;26.80;72.10
27667;DHT22;15074;50.940;5.282;2022-09-01T16:41:45;26.20;72.60
27667;DHT22;15074;50.940;5.282;2022-09-01T16:47:08;25.70;74.30
27667;DHT22;15074;50.940;5.282;2022-09-01T16:58:35;26.10;73.70
27667;DHT22;15074;50.940;5.282;2022-09-01T17:06:37;26.30;73.50
27667;DHT22;15074;50.940;5.282;2022-09-01T17:09:14;26.40;73.70